PRIVATE WETTERSTATION BILLIGHEIM-ALLFELD                       ZURCK
Wetterdaten: Mittwoch, 05.03.2014
Datum Zeit Temp. A. Temp. A. min Temp. A. max Feuchte A. Luftdruck Regen Wind Richtung Richtung Sonnenschein ET Solar Taupunkt Windchill Windben Empfang
05.03.2014 00:00 4,7 C 4,7 C 4,9 C 82 % 1009,0 hPa 0,0 l/m 0,0 km/h (0 Bft) N 0 0 min 0,000 mm 0 W/m 1,9 C 4,7 C 0,0 km/h (0 Bft) 100 %
05.03.2014 00:10 4,6 C 4,6 C 4,7 C 83 % 1009,0 hPa 0,0 l/m 0,0 km/h (0 Bft) N 0 0 min 0,000 mm 0 W/m 2,0 C 4,6 C 0,0 km/h (0 Bft) 100 %
05.03.2014 00:20 4,5 C 4,5 C 4,6 C 83 % 1009,0 hPa 0,0 l/m 0,0 km/h (0 Bft) N 0 0 min 0,000 mm 0 W/m 1,9 C 4,5 C 0,0 km/h (0 Bft) 100 %
05.03.2014 00:30 4,4 C 4,4 C 4,5 C 84 % 1009,0 hPa 0,0 l/m 0,0 km/h (0 Bft) N 0 0 min 0,000 mm 0 W/m 1,9 C 4,4 C 0,0 km/h (0 Bft) 92 %
05.03.2014 00:40 4,2 C 4,2 C 4,4 C 84 % 1009,1 hPa 0,0 l/m 0,0 km/h (0 Bft) N 0 0 min 0,000 mm 0 W/m 1,7 C 4,2 C 0,0 km/h (0 Bft) 100 %
05.03.2014 00:50 4,1 C 4,1 C 4,2 C 85 % 1009,4 hPa 0,0 l/m 0,0 km/h (0 Bft) NO 45 0 min 0,000 mm 0 W/m 1,8 C 4,1 C 1,6 km/h (1 Bft) 100 %
05.03.2014 01:00 3,7 C 3,7 C 4,1 C 84 % 1009,7 hPa 0,0 l/m 0,0 km/h (0 Bft) NO 45 0 min 0,000 mm 0 W/m 1,3 C 3,7 C 1,6 km/h (1 Bft) 100 %
05.03.2014 01:10 3,5 C 3,5 C 3,7 C 86 % 1009,7 hPa 0,0 l/m 0,0 km/h (0 Bft) NO 45 0 min 0,000 mm 0 W/m 1,4 C 3,5 C 1,6 km/h (1 Bft) 100 %
05.03.2014 01:20 3,4 C 3,4 C 3,5 C 86 % 1009,7 hPa 0,0 l/m 0,0 km/h (0 Bft) NO 45 0 min 0,000 mm 0 W/m 1,3 C 3,4 C 3,2 km/h (1 Bft) 100 %
05.03.2014 01:30 3,3 C 3,3 C 3,4 C 86 % 1009,8 hPa 0,0 l/m 0,0 km/h (0 Bft) NO 45 0 min 0,000 mm 0 W/m 1,2 C 3,3 C 1,6 km/h (1 Bft) 100 %
05.03.2014 01:40 3,3 C 3,2 C 3,3 C 87 % 1009,9 hPa 0,0 l/m 0,0 km/h (0 Bft) NO 45 0 min 0,000 mm 0 W/m 1,3 C 3,3 C 1,6 km/h (1 Bft) 100 %
05.03.2014 01:50 3,2 C 3,2 C 3,3 C 86 % 1009,9 hPa 0,0 l/m 0,0 km/h (0 Bft) N 0 0 min 0,000 mm 0 W/m 1,1 C 3,2 C 0,0 km/h (0 Bft) 100 %
05.03.2014 02:00 2,9 C 2,9 C 3,2 C 86 % 1009,9 hPa 0,0 l/m 0,0 km/h (0 Bft) N 0 0 min 0,000 mm 0 W/m 0,8 C 2,9 C 0,0 km/h (0 Bft) 100 %
05.03.2014 02:10 2,6 C 2,6 C 2,9 C 86 % 1010,1 hPa 0,0 l/m 0,0 km/h (0 Bft) N 0 0 min 0,000 mm 0 W/m 0,5 C 2,6 C 0,0 km/h (0 Bft) 91 %
05.03.2014 02:20 2,3 C 2,3 C 2,6 C 87 % 1010,2 hPa 0,0 l/m 0,0 km/h (0 Bft) NO 45 0 min 0,000 mm 0 W/m 0,4 C 2,3 C 1,6 km/h (1 Bft) 100 %
05.03.2014 02:30 2,4 C 2,3 C 2,4 C 88 % 1010,4 hPa 0,0 l/m 0,0 km/h (0 Bft) NO 45 0 min 0,000 mm 0 W/m 0,6 C 2,4 C 1,6 km/h (1 Bft) 100 %
05.03.2014 02:40 2,2 C 2,2 C 2,4 C 87 % 1010,5 hPa 0,0 l/m 0,0 km/h (0 Bft) N 0 0 min 0,000 mm 0 W/m 0,3 C 2,2 C 0,0 km/h (0 Bft) 100 %
05.03.2014 02:50 1,9 C 1,9 C 2,2 C 88 % 1010,6 hPa 0,0 l/m 0,0 km/h (0 Bft) NO 45 0 min 0,000 mm 0 W/m 0,1 C 1,9 C 1,6 km/h (1 Bft) 100 %
05.03.2014 03:00 2,1 C 1,9 C 2,1 C 88 % 1010,5 hPa 0,0 l/m 0,0 km/h (0 Bft) NO 45 0 min 0,000 mm 0 W/m 0,3 C 2,1 C 1,6 km/h (1 Bft) 100 %
05.03.2014 03:10 2,3 C 2,1 C 2,3 C 88 % 1010,6 hPa 0,0 l/m 0,0 km/h (0 Bft) NO 45 0 min 0,000 mm 0 W/m 0,5 C 2,3 C 1,6 km/h (1 Bft) 100 %
05.03.2014 03:20 2,1 C 2,1 C 2,3 C 88 % 1010,7 hPa 0,0 l/m 0,0 km/h (0 Bft) N 0 0 min 0,000 mm 0 W/m 0,3 C 2,1 C 0,0 km/h (0 Bft) 100 %
05.03.2014 03:30 1,8 C 1,8 C 2,1 C 87 % 1010,8 hPa 0,0 l/m 0,0 km/h (0 Bft) N 0 0 min 0,000 mm 0 W/m -0,1 C 1,8 C 0,0 km/h (0 Bft) 100 %
05.03.2014 03:40 1,4 C 1,4 C 1,8 C 88 % 1010,9 hPa 0,0 l/m 0,0 km/h (0 Bft) N 0 0 min 0,000 mm 0 W/m -0,4 C 1,4 C 0,0 km/h (0 Bft) 100 %
05.03.2014 03:50 1,3 C 1,3 C 1,4 C 88 % 1010,9 hPa 0,0 l/m 0,0 km/h (0 Bft) N 0 0 min 0,000 mm 0 W/m -0,5 C 1,3 C 0,0 km/h (0 Bft) 100 %
05.03.2014 04:00 1,2 C 1,2 C 1,3 C 88 % 1011,1 hPa 0,0 l/m 0,0 km/h (0 Bft) NO 45 0 min 0,000 mm 0 W/m -0,6 C 1,2 C 1,6 km/h (1 Bft) 100 %
05.03.2014 04:10 1,0 C 1,0 C 1,2 C 88 % 1011,1 hPa 0,0 l/m 0,0 km/h (0 Bft) NO 45 0 min 0,000 mm 0 W/m -0,8 C 1,0 C 1,6 km/h (1 Bft) 100 %
05.03.2014 04:20 0,8 C 0,8 C 1,0 C 88 % 1011,5 hPa 0,0 l/m 0,0 km/h (0 Bft) NO 45 0 min 0,000 mm 0 W/m -1,0 C 0,8 C 1,6 km/h (1 Bft) 100 %
05.03.2014 04:30 0,6 C 0,6 C 0,8 C 88 % 1011,5 hPa 0,0 l/m 0,0 km/h (0 Bft) N 0 0 min 0,000 mm 0 W/m -1,2 C 0,6 C 0,0 km/h (0 Bft) 100 %
05.03.2014 04:40 0,4 C 0,4 C 0,6 C 88 % 1011,6 hPa 0,0 l/m 0,0 km/h (0 Bft) N 0 0 min 0,000 mm 0 W/m -1,3 C 0,4 C 0,0 km/h (0 Bft) 100 %
05.03.2014 04:50 0,3 C 0,3 C 0,4 C 88 % 1011,8 hPa 0,0 l/m 0,0 km/h (0 Bft) NO 45 0 min 0,000 mm 0 W/m -1,4 C 0,3 C 1,6 km/h (1 Bft) 100 %
05.03.2014 05:00 0,1 C 0,1 C 0,3 C 88 % 1012,0 hPa 0,0 l/m 0,0 km/h (0 Bft) NO 45 0 min 0,000 mm 0 W/m -1,6 C 0,1 C 1,6 km/h (1 Bft) 90 %
05.03.2014 05:10 0,2 C 0,1 C 0,2 C 88 % 1012,2 hPa 0,0 l/m 0,0 km/h (0 Bft) N 0 0 min 0,000 mm 0 W/m -1,5 C 0,2 C 0,0 km/h (0 Bft) 100 %
05.03.2014 05:20 0,2 C 0,2 C 0,2 C 88 % 1012,2 hPa 0,0 l/m 0,0 km/h (0 Bft) N 0 0 min 0,000 mm 0 W/m -1,5 C 0,2 C 0,0 km/h (0 Bft) 100 %
05.03.2014 05:30 0,3 C 0,2 C 0,3 C 88 % 1012,4 hPa 0,0 l/m 0,0 km/h (0 Bft) N 0 0 min 0,000 mm 0 W/m -1,4 C 0,3 C 0,0 km/h (0 Bft) 100 %
05.03.2014 05:40 0,4 C 0,3 C 0,4 C 88 % 1012,4 hPa 0,0 l/m 0,0 km/h (0 Bft) N 0 0 min 0,000 mm 0 W/m -1,3 C 0,4 C 0,0 km/h (0 Bft) 99 %
05.03.2014 05:50 0,4 C 0,4 C 0,5 C 88 % 1012,6 hPa 0,0 l/m 0,0 km/h (0 Bft) N 0 0 min 0,000 mm 0 W/m -1,3 C 0,4 C 0,0 km/h (0 Bft) 100 %
05.03.2014 06:00 0,2 C 0,2 C 0,4 C 88 % 1012,9 hPa 0,0 l/m 0,0 km/h (0 Bft) N 0 0 min 0,000 mm 0 W/m -1,5 C 0,2 C 0,0 km/h (0 Bft) 100 %
05.03.2014 06:10 0,3 C 0,2 C 0,3 C 88 % 1013,2 hPa 0,0 l/m 0,0 km/h (0 Bft) NO 45 0 min 0,000 mm 0 W/m -1,4 C 0,3 C 1,6 km/h (1 Bft) 100 %
05.03.2014 06:20 0,4 C 0,3 C 0,4 C 88 % 1013,2 hPa 0,0 l/m 0,0 km/h (0 Bft) N 0 0 min 0,000 mm 0 W/m -1,3 C 0,4 C 0,0 km/h (0 Bft) 100 %
05.03.2014 06:30 0,5 C 0,4 C 0,5 C 88 % 1013,2 hPa 0,0 l/m 0,0 km/h (0 Bft) N 0 0 min 0,000 mm 0 W/m -1,3 C 0,5 C 0,0 km/h (0 Bft) 100 %
05.03.2014 06:40 0,6 C 0,5 C 0,6 C 88 % 1013,2 hPa 0,0 l/m 0,0 km/h (0 Bft) N 0 0 min 0,000 mm 0 W/m -1,2 C 0,6 C 0,0 km/h (0 Bft) 100 %
05.03.2014 06:50 0,8 C 0,6 C 0,8 C 88 % 1013,4 hPa 0,0 l/m 0,0 km/h (0 Bft) N 0 0 min 0,000 mm 0 W/m -1,0 C 0,8 C 0,0 km/h (0 Bft) 100 %
05.03.2014 07:00 0,9 C 0,8 C 0,9 C 88 % 1013,7 hPa 0,0 l/m 0,0 km/h (0 Bft) NO 45 0 min 0,000 mm 0 W/m -0,9 C 0,9 C 1,6 km/h (1 Bft) 100 %
05.03.2014 07:10 0,8 C 0,8 C 0,9 C 88 % 1013,9 hPa 0,0 l/m 0,0 km/h (0 Bft) N-NO 22 0 min 0,000 mm 0 W/m -1,0 C 0,8 C 1,6 km/h (1 Bft) 100 %
05.03.2014 07:20 0,8 C 0,8 C 0,8 C 88 % 1014,1 hPa 0,0 l/m 0,0 km/h (0 Bft) N 0 0 min 0,000 mm 5 W/m -1,0 C 0,8 C 0,0 km/h (0 Bft) 100 %
05.03.2014 07:30 0,9 C 0,8 C 0,9 C 88 % 1014,3 hPa 0,0 l/m 0,0 km/h (0 Bft) N 0 0 min 0,000 mm 11 W/m -0,9 C 0,9 C 0,0 km/h (0 Bft) 100 %
05.03.2014 07:40 1,0 C 0,9 C 1,0 C 88 % 1014,5 hPa 0,0 l/m 0,0 km/h (0 Bft) N-NO 22 0 min 0,000 mm 12 W/m -0,8 C 1,0 C 1,6 km/h (1 Bft) 100 %
05.03.2014 07:50 1,1 C 0,9 C 1,1 C 88 % 1014,6 hPa 0,0 l/m 0,0 km/h (0 Bft) N 0 0 min 0,000 mm 18 W/m -0,7 C 1,1 C 0,0 km/h (0 Bft) 100 %
05.03.2014 08:00 1,2 C 1,1 C 1,2 C 88 % 1014,7 hPa 0,0 l/m 0,0 km/h (0 Bft) N 0 0 min 0,000 mm 25 W/m -0,6 C 1,2 C 0,0 km/h (0 Bft) 100 %
05.03.2014 08:10 1,4 C 1,2 C 1,4 C 88 % 1015,0 hPa 0,0 l/m 0,0 km/h (0 Bft) N 0 0 min 0,000 mm 32 W/m -0,4 C 1,4 C 0,0 km/h (0 Bft) 100 %
05.03.2014 08:20 1,4 C 1,4 C 1,4 C 88 % 1015,1 hPa 0,0 l/m 0,0 km/h (0 Bft) N 0 0 min 0,000 mm 37 W/m -0,4 C 1,4 C 0,0 km/h (0 Bft) 99 %
05.03.2014 08:30 1,4 C 1,4 C 1,4 C 88 % 1015,2 hPa 0,0 l/m 0,0 km/h (0 Bft) N 0 0 min 0,000 mm 46 W/m -0,4 C 1,4 C 0,0 km/h (0 Bft) 100 %
05.03.2014 08:40 1,7 C 1,4 C 1,7 C 88 % 1015,4 hPa 0,0 l/m 0,0 km/h (0 Bft) N 0 0 min 0,000 mm 60 W/m -0,1 C 1,7 C 0,0 km/h (0 Bft) 100 %
05.03.2014 08:50 1,8 C 1,7 C 1,8 C 88 % 1015,5 hPa 0,0 l/m 0,0 km/h (0 Bft) N 0 0 min 0,000 mm 74 W/m 0,0 C 1,8 C 0,0 km/h (0 Bft) 100 %
05.03.2014 09:00 2,1 C 1,8 C 2,1 C 88 % 1015,7 hPa 0,0 l/m 0,0 km/h (0 Bft) N-NO 22 0 min 0,025 mm 84 W/m 0,3 C 2,1 C 1,6 km/h (1 Bft) 100 %
05.03.2014 09:10 2,3 C 2,1 C 2,3 C 88 % 1015,9 hPa 0,0 l/m 0,0 km/h (0 Bft) NO 45 0 min 0,000 mm 93 W/m 0,5 C 2,3 C 1,6 km/h (1 Bft) 100 %
05.03.2014 09:20 2,5 C 2,3 C 2,5 C 88 % 1016,2 hPa 0,0 l/m 0,0 km/h (0 Bft) NO 45 0 min 0,000 mm 98 W/m 0,7 C 2,5 C 1,6 km/h (1 Bft) 100 %
05.03.2014 09:30 2,8 C 2,5 C 2,8 C 88 % 1016,3 hPa 0,0 l/m 0,0 km/h (0 Bft) N 0 0 min 0,000 mm 104 W/m 1,0 C 2,8 C 0,0 km/h (0 Bft) 100 %
05.03.2014 09:40 3,0 C 2,8 C 3,0 C 88 % 1016,3 hPa 0,0 l/m 0,0 km/h (0 Bft) N 0 0 min 0,000 mm 116 W/m 1,2 C 3,0 C 0,0 km/h (0 Bft) 91 %
05.03.2014 09:50 3,3 C 3,0 C 3,3 C 88 % 1016,5 hPa 0,0 l/m 0,0 km/h (0 Bft) N 0 0 min 0,000 mm 130 W/m 1,5 C 3,3 C 0,0 km/h (0 Bft) 100 %
05.03.2014 10:00 3,6 C 3,3 C 3,6 C 88 % 1016,5 hPa 0,0 l/m 0,0 km/h (0 Bft) N 0 0 min 0,051 mm 151 W/m 1,8 C 3,6 C 0,0 km/h (0 Bft) 100 %
05.03.2014 10:10 3,9 C 3,6 C 3,9 C 88 % 1016,7 hPa 0,0 l/m 0,0 km/h (0 Bft) N 0 10 min 0,000 mm 167 W/m 2,1 C 3,9 C 0,0 km/h (0 Bft) 100 %
05.03.2014 10:20 4,3 C 3,9 C 4,3 C 88 % 1016,8 hPa 0,0 l/m 0,0 km/h (0 Bft) NO 45 10 min 0,000 mm 200 W/m 2,5 C 4,3 C 3,2 km/h (1 Bft) 100 %
05.03.2014 10:30 4,6 C 4,3 C 4,6 C 88 % 1016,9 hPa 0,0 l/m 0,0 km/h (0 Bft) NO 45 10 min 0,000 mm 220 W/m 2,8 C 4,6 C 1,6 km/h (1 Bft) 100 %
05.03.2014 10:40 4,9 C 4,6 C 4,9 C 88 % 1017,0 hPa 0,0 l/m 0,0 km/h (0 Bft) N 0 10 min 0,000 mm 237 W/m 3,1 C 4,9 C 0,0 km/h (0 Bft) 100 %
05.03.2014 10:50 5,3 C 4,9 C 5,3 C 87 % 1017,1 hPa 0,0 l/m 0,0 km/h (0 Bft) N 0 10 min 0,000 mm 262 W/m 3,3 C 5,3 C 0,0 km/h (0 Bft) 100 %
05.03.2014 11:00 6,2 C 5,3 C 6,2 C 87 % 1017,1 hPa 0,0 l/m 0,0 km/h (0 Bft) NO 45 10 min 0,102 mm 478 W/m 4,2 C 6,2 C 1,6 km/h (1 Bft) 100 %
05.03.2014 11:10 7,0 C 6,2 C 7,0 C 85 % 1017,3 hPa 0,0 l/m 0,0 km/h (0 Bft) NO 45 10 min 0,000 mm 550 W/m 4,7 C 7,0 C 3,2 km/h (1 Bft) 100 %
05.03.2014 11:20 7,7 C 7,0 C 7,7 C 81 % 1017,4 hPa 0,0 l/m 0,0 km/h (0 Bft) W-NW 292 10 min 0,000 mm 561 W/m 4,7 C 7,7 C 6,4 km/h (2 Bft) 100 %
05.03.2014 11:30 8,7 C 7,8 C 8,7 C 78 % 1017,4 hPa 0,0 l/m 1,6 km/h (1 Bft) W-NW 292 10 min 0,000 mm 536 W/m 5,1 C 8,7 C 6,4 km/h (2 Bft) 100 %
05.03.2014 11:40 9,4 C 8,7 C 9,4 C 73 % 1017,5 hPa 0,0 l/m 0,0 km/h (0 Bft) W-NW 292 10 min 0,000 mm 540 W/m 4,8 C 9,4 C 4,8 km/h (1 Bft) 100 %
05.03.2014 11:50 9,8 C 9,4 C 9,8 C 72 % 1017,5 hPa 0,0 l/m 0,0 km/h (0 Bft) NW 315 10 min 0,000 mm 540 W/m 5,0 C 9,8 C 3,2 km/h (1 Bft) 100 %
05.03.2014 12:00 10,2 C 9,8 C 10,2 C 70 % 1017,6 hPa 0,0 l/m 1,6 km/h (1 Bft) NW 315 10 min 0,229 mm 534 W/m 5,0 C 10,2 C 8,0 km/h (2 Bft) 100 %
05.03.2014 12:10 10,6 C 9,8 C 10,6 C 67 % 1017,6 hPa 0,0 l/m 1,5 km/h (1 Bft) NW 323 10 min 0,000 mm 566 W/m 4,7 C 10,6 C 8,0 km/h (2 Bft) 100 %
05.03.2014 12:20 10,7 C 10,6 C 10,7 C 67 % 1017,7 hPa 0,0 l/m 0,6 km/h (0 Bft) N 11 10 min 0,000 mm 598 W/m 4,8 C 10,7 C 6,4 km/h (2 Bft) 100 %
05.03.2014 12:30 11,1 C 10,7 C 11,1 C 65 % 1017,8 hPa 0,0 l/m 3,3 km/h (1 Bft) W 277 10 min 0,000 mm 650 W/m 4,8 C 11,1 C 14,5 km/h (3 Bft) 99 %
05.03.2014 12:40 11,6 C 11,1 C 11,6 C 63 % 1017,7 hPa 0,0 l/m 6,5 km/h (2 Bft) NW 321 10 min 0,000 mm 684 W/m 4,8 C 11,6 C 19,3 km/h (3 Bft) 100 %
05.03.2014 12:50 11,7 C 11,6 C 11,7 C 64 % 1017,8 hPa 0,0 l/m 3,5 km/h (1 Bft) NW 313 10 min 0,000 mm 285 W/m 5,1 C 11,7 C 14,5 km/h (3 Bft) 100 %
05.03.2014 13:00 11,4 C 11,4 C 11,7 C 63 % 1017,8 hPa 0,0 l/m 4,1 km/h (1 Bft) NW 314 0 min 0,253 mm 128 W/m 4,6 C 11,4 C 17,7 km/h (3 Bft) 100 %
05.03.2014 13:10 10,9 C 10,9 C 11,4 C 63 % 1017,7 hPa 0,0 l/m 5,2 km/h (1 Bft) NW 312 10 min 0,000 mm 343 W/m 4,1 C 10,9 C 16,1 km/h (3 Bft) 100 %
05.03.2014 13:20 11,4 C 10,9 C 11,4 C 62 % 1017,8 hPa 0,0 l/m 4,9 km/h (1 Bft) NW 318 10 min 0,000 mm 496 W/m 4,4 C 11,4 C 14,5 km/h (3 Bft) 100 %
05.03.2014 13:30 11,4 C 11,3 C 11,5 C 57 % 1017,8 hPa 0,0 l/m 1,3 km/h (1 Bft) N-NO 18 10 min 0,000 mm 171 W/m 3,2 C 11,4 C 9,7 km/h (2 Bft) 100 %
05.03.2014 13:40 11,3 C 11,3 C 11,4 C 58 % 1017,9 hPa 0,0 l/m 2,0 km/h (1 Bft) N 355 0 min 0,000 mm 141 W/m 3,3 C 11,3 C 9,7 km/h (2 Bft) 100 %
05.03.2014 13:50 11,1 C 11,1 C 11,3 C 57 % 1017,8 hPa 0,0 l/m 3,5 km/h (1 Bft) W-NW 296 0 min 0,000 mm 98 W/m 2,9 C 11,1 C 9,7 km/h (2 Bft) 100 %
05.03.2014 14:00 10,7 C 10,7 C 11,1 C 58 % 1017,8 hPa 0,0 l/m 0,5 km/h (0 Bft) N 360 0 min 0,178 mm 102 W/m 2,8 C 10,7 C 6,4 km/h (2 Bft) 100 %
05.03.2014 14:10 10,6 C 10,6 C 10,7 C 58 % 1017,9 hPa 0,0 l/m 2,3 km/h (1 Bft) NW 308 0 min 0,000 mm 100 W/m 2,7 C 10,6 C 11,3 km/h (2 Bft) 99 %
05.03.2014 14:20 10,6 C 10,4 C 10,6 C 59 % 1018,0 hPa 0,0 l/m 3,4 km/h (1 Bft) NW 316 10 min 0,000 mm 197 W/m 2,9 C 10,6 C 9,7 km/h (2 Bft) 100 %
05.03.2014 14:30 10,8 C 10,6 C 10,8 C 56 % 1018,0 hPa 0,0 l/m 1,4 km/h (1 Bft) NW 310 0 min 0,000 mm 127 W/m 2,4 C 10,8 C 8,0 km/h (2 Bft) 100 %
05.03.2014 14:40 11,1 C 10,8 C 11,1 C 55 % 1018,0 hPa 0,0 l/m 1,1 km/h (1 Bft) W 265 0 min 0,000 mm 127 W/m 2,4 C 11,1 C 6,4 km/h (2 Bft) 100 %
05.03.2014 14:50 11,3 C 11,0 C 11,3 C 55 % 1018,0 hPa 0,0 l/m 1,1 km/h (1 Bft) NW 304 10 min 0,000 mm 199 W/m 2,6 C 11,3 C 8,0 km/h (2 Bft) 91 %
05.03.2014 15:00 11,8 C 11,3 C 11,8 C 53 % 1018,1 hPa 0,0 l/m 10,2 km/h (2 Bft) NW 315 10 min 0,153 mm 163 W/m 2,5 C 9,5 C 20,9 km/h (4 Bft) 100 %
05.03.2014 15:10 11,4 C 11,4 C 11,8 C 53 % 1018,2 hPa 0,0 l/m 7,5 km/h (2 Bft) NW 323 0 min 0,000 mm 104 W/m 2,2 C 10,7 C 16,1 km/h (3 Bft) 99 %
05.03.2014 15:20 10,9 C 10,9 C 11,4 C 55 % 1018,4 hPa 0,0 l/m 4,1 km/h (1 Bft) N-NW 331 0 min 0,000 mm 116 W/m 2,2 C 10,9 C 11,3 km/h (2 Bft) 100 %
05.03.2014 15:30 10,6 C 10,6 C 10,9 C 54 % 1018,5 hPa 0,0 l/m 0,1 km/h (0 Bft) N-NW 337 0 min 0,000 mm 74 W/m 1,7 C 10,6 C 4,8 km/h (1 Bft) 100 %
05.03.2014 15:40 10,4 C 10,4 C 10,6 C 56 % 1018,8 hPa 0,0 l/m 0,0 km/h (0 Bft) N-NW 337 10 min 0,000 mm 279 W/m 2,0 C 10,4 C 1,6 km/h (1 Bft) 100 %
05.03.2014 15:50 10,5 C 10,4 C 10,5 C 56 % 1018,8 hPa 0,0 l/m 0,8 km/h (0 Bft) SW 221 0 min 0,000 mm 49 W/m 2,1 C 10,5 C 8,0 km/h (2 Bft) 100 %
05.03.2014 16:00 10,3 C 10,3 C 10,5 C 57 % 1019,0 hPa 0,0 l/m 3,6 km/h (1 Bft) NW 317 0 min 0,076 mm 47 W/m 2,2 C 10,3 C 9,7 km/h (2 Bft) 100 %
05.03.2014 16:10 10,1 C 10,1 C 10,3 C 58 % 1019,2 hPa 0,0 l/m 5,4 km/h (1 Bft) N-NW 340 0 min 0,000 mm 35 W/m 2,2 C 10,1 C 19,3 km/h (3 Bft) 100 %
05.03.2014 16:20 9,9 C 9,9 C 10,1 C 59 % 1019,3 hPa 0,0 l/m 3,5 km/h (1 Bft) NW 320 0 min 0,000 mm 44 W/m 2,3 C 9,9 C 11,3 km/h (2 Bft) 100 %
05.03.2014 16:30 9,7 C 9,7 C 9,9 C 61 % 1019,4 hPa 0,0 l/m 2,8 km/h (1 Bft) N 355 0 min 0,000 mm 56 W/m 2,5 C 9,7 C 8,0 km/h (2 Bft) 100 %
05.03.2014 16:40 9,7 C 9,7 C 9,7 C 61 % 1019,6 hPa 0,0 l/m 2,0 km/h (1 Bft) N-NW 333 0 min 0,000 mm 28 W/m 2,5 C 9,7 C 12,9 km/h (3 Bft) 100 %
05.03.2014 16:50 9,5 C 9,5 C 9,8 C 60 % 1019,8 hPa 0,0 l/m 1,7 km/h (1 Bft) N 11 0 min 0,000 mm 18 W/m 2,1 C 9,5 C 11,3 km/h (2 Bft) 100 %
05.03.2014 17:00 9,2 C 9,2 C 9,5 C 60 % 1019,9 hPa 0,0 l/m 0,9 km/h (0 Bft) N 5 0 min 0,025 mm 26 W/m 1,8 C 9,2 C 9,7 km/h (2 Bft) 100 %
05.03.2014 17:10 8,9 C 8,9 C 9,2 C 62 % 1019,9 hPa 0,0 l/m 0,1 km/h (0 Bft) N-NW 341 0 min 0,000 mm 32 W/m 2,0 C 8,9 C 4,8 km/h (1 Bft) 100 %
05.03.2014 17:20 8,6 C 8,6 C 8,9 C 63 % 1020,0 hPa 0,0 l/m 1,8 km/h (1 Bft) NW 310 0 min 0,000 mm 28 W/m 2,0 C 8,6 C 8,0 km/h (2 Bft) 100 %
05.03.2014 17:30 8,3 C 8,3 C 8,6 C 65 % 1020,3 hPa 0,0 l/m 1,3 km/h (1 Bft) N-NW 345 0 min 0,000 mm 23 W/m 2,1 C 8,3 C 8,0 km/h (2 Bft) 100 %
05.03.2014 17:40 8,1 C 8,1 C 8,3 C 66 % 1020,4 hPa 0,0 l/m 2,6 km/h (1 Bft) N 355 0 min 0,000 mm 16 W/m 2,1 C 8,1 C 11,3 km/h (2 Bft) 100 %
05.03.2014 17:50 7,7 C 7,7 C 8,1 C 68 % 1020,7 hPa 0,0 l/m 1,7 km/h (1 Bft) N-NO 30 0 min 0,000 mm 11 W/m 2,2 C 7,7 C 11,3 km/h (2 Bft) 100 %
05.03.2014 18:00 7,4 C 7,4 C 7,7 C 68 % 1020,8 hPa 0,0 l/m 1,7 km/h (1 Bft) N-NW 345 0 min 0,026 mm 7 W/m 1,9 C 7,4 C 8,0 km/h (2 Bft) 100 %
05.03.2014 18:10 7,1 C 7,1 C 7,4 C 69 % 1021,0 hPa 0,0 l/m 0,9 km/h (0 Bft) N 9 0 min 0,000 mm 0 W/m 1,8 C 7,1 C 8,0 km/h (2 Bft) 100 %
05.03.2014 18:20 6,8 C 6,8 C 7,1 C 69 % 1021,0 hPa 0,0 l/m 0,3 km/h (0 Bft) N-NO 13 0 min 0,000 mm 0 W/m 1,5 C 6,8 C 3,2 km/h (1 Bft) 100 %
05.03.2014 18:30 6,6 C 6,6 C 6,8 C 70 % 1021,3 hPa 0,0 l/m 0,2 km/h (0 Bft) N 5 0 min 0,000 mm 0 W/m 1,5 C 6,6 C 4,8 km/h (1 Bft) 100 %
05.03.2014 18:40 6,2 C 6,2 C 6,6 C 72 % 1021,6 hPa 0,0 l/m 0,0 km/h (0 Bft) N 5 0 min 0,000 mm 0 W/m 1,5 C 6,2 C 1,6 km/h (1 Bft) 100 %
05.03.2014 18:50 5,9 C 5,9 C 6,2 C 73 % 1021,8 hPa 0,0 l/m 0,1 km/h (0 Bft) N-NO 24 0 min 0,000 mm 0 W/m 1,4 C 5,9 C 1,6 km/h (1 Bft) 100 %
05.03.2014 19:00 5,6 C 5,6 C 5,9 C 74 % 1022,0 hPa 0,0 l/m 0,1 km/h (0 Bft) N-NO 24 0 min 0,000 mm 0 W/m 1,3 C 5,6 C 1,6 km/h (1 Bft) 100 %
05.03.2014 19:10 5,4 C 5,4 C 5,6 C 75 % 1022,2 hPa 0,0 l/m 1,1 km/h (1 Bft) N-NW 328 0 min 0,000 mm 0 W/m 1,3 C 5,4 C 4,8 km/h (1 Bft) 100 %
05.03.2014 19:20 5,1 C 5,1 C 5,4 C 75 % 1022,3 hPa 0,0 l/m 0,1 km/h (0 Bft) N-NW 328 0 min 0,000 mm 0 W/m 1,0 C 5,1 C 3,2 km/h (1 Bft) 100 %
05.03.2014 19:30 4,8 C 4,8 C 5,1 C 76 % 1022,4 hPa 0,0 l/m 0,0 km/h (0 Bft) N-NW 328 0 min 0,000 mm 0 W/m 0,9 C 4,8 C 0,0 km/h (0 Bft) 100 %
05.03.2014 19:40 4,6 C 4,6 C 4,8 C 77 % 1022,5 hPa 0,0 l/m 0,0 km/h (0 Bft) N-NW 328 0 min 0,000 mm 0 W/m 0,9 C 4,6 C 0,0 km/h (0 Bft) 100 %
05.03.2014 19:50 4,3 C 4,3 C 4,6 C 78 % 1022,6 hPa 0,0 l/m 0,0 km/h (0 Bft) N-NW 328 0 min 0,000 mm 0 W/m 0,8 C 4,3 C 1,6 km/h (1 Bft) 100 %
05.03.2014 20:00 4,1 C 4,1 C 4,3 C 79 % 1022,8 hPa 0,0 l/m 0,0 km/h (0 Bft) N-NW 328 0 min 0,025 mm 0 W/m 0,8 C 4,1 C 0,0 km/h (0 Bft) 100 %
05.03.2014 20:10 4,0 C 4,0 C 4,1 C 79 % 1022,9 hPa 0,0 l/m 0,1 km/h (0 Bft) N-NW 328 0 min 0,000 mm 0 W/m 0,7 C 4,0 C 1,6 km/h (1 Bft) 91 %
05.03.2014 20:20 4,0 C 4,0 C 4,0 C 79 % 1023,1 hPa 0,0 l/m 0,0 km/h (0 Bft) N-NW 328 0 min 0,000 mm 0 W/m 0,7 C 4,0 C 0,0 km/h (0 Bft) 100 %
05.03.2014 20:30 3,9 C 3,9 C 4,0 C 80 % 1023,3 hPa 0,0 l/m 0,0 km/h (0 Bft) N-NW 328 0 min 0,000 mm 0 W/m 0,8 C 3,9 C 0,0 km/h (0 Bft) 100 %
05.03.2014 20:40 3,6 C 3,6 C 3,9 C 80 % 1023,5 hPa 0,0 l/m 0,0 km/h (0 Bft) N-NW 328 0 min 0,000 mm 0 W/m 0,5 C 3,6 C 0,0 km/h (0 Bft) 99 %
05.03.2014 20:50 3,3 C 3,3 C 3,6 C 81 % 1023,5 hPa 0,0 l/m 0,1 km/h (0 Bft) N-NW 328 0 min 0,000 mm 0 W/m 0,4 C 3,3 C 1,6 km/h (1 Bft) 100 %
05.03.2014 21:00 3,0 C 3,0 C 3,3 C 82 % 1023,7 hPa 0,0 l/m 0,0 km/h (0 Bft) N-NW 328 0 min 0,000 mm 0 W/m 0,2 C 3,0 C 1,6 km/h (1 Bft) 100 %
05.03.2014 21:10 2,8 C 2,8 C 3,0 C 83 % 1023,7 hPa 0,0 l/m 0,0 km/h (0 Bft) N-NW 337 0 min 0,000 mm 0 W/m 0,2 C 2,8 C 1,6 km/h (1 Bft) 98 %
05.03.2014 21:20 2,8 C 2,8 C 2,8 C 83 % 1023,8 hPa 0,0 l/m 0,0 km/h (0 Bft) N-NW 337 0 min 0,000 mm 0 W/m 0,2 C 2,8 C 1,6 km/h (1 Bft) 97 %
05.03.2014 21:30 2,7 C 2,7 C 2,8 C 83 % 1023,9 hPa 0,0 l/m 0,0 km/h (0 Bft) N 0 0 min 0,000 mm 0 W/m 0,1 C 2,7 C 0,0 km/h (0 Bft) 98 %
05.03.2014 21:40 2,6 C 2,6 C 2,7 C 83 % 1024,1 hPa 0,0 l/m 0,0 km/h (0 Bft) N 0 0 min 0,000 mm 0 W/m 0,0 C 2,6 C 0,0 km/h (0 Bft) 97 %
05.03.2014 21:50 2,5 C 2,4 C 2,6 C 84 % 1024,2 hPa 0,0 l/m 0,0 km/h (0 Bft) N-NW 337 0 min 0,000 mm 0 W/m 0,1 C 2,5 C 3,2 km/h (1 Bft) 98 %
05.03.2014 22:00 2,4 C 2,4 C 2,5 C 85 % 1024,2 hPa 0,0 l/m 0,0 km/h (0 Bft) N-NO 22 0 min 0,000 mm 0 W/m 0,1 C 2,4 C 3,2 km/h (1 Bft) 98 %
05.03.2014 22:10 2,5 C 2,4 C 2,5 C 85 % 1024,4 hPa 0,0 l/m 0,0 km/h (0 Bft) N-NO 22 0 min 0,000 mm 0 W/m 0,2 C 2,5 C 3,2 km/h (1 Bft) 97 %
05.03.2014 22:20 2,3 C 2,3 C 2,5 C 84 % 1024,4 hPa 0,0 l/m 0,0 km/h (0 Bft) N-NO 22 0 min 0,000 mm 0 W/m -0,1 C 2,3 C 1,6 km/h (1 Bft) 98 %
05.03.2014 22:30 2,1 C 2,1 C 2,3 C 85 % 1024,6 hPa 0,0 l/m 0,0 km/h (0 Bft) N 0 0 min 0,000 mm 0 W/m -0,2 C 2,1 C 0,0 km/h (0 Bft) 97 %
05.03.2014 22:40 2,1 C 2,0 C 2,1 C 85 % 1024,6 hPa 0,0 l/m 0,0 km/h (0 Bft) N-NO 22 0 min 0,000 mm 0 W/m -0,2 C 2,1 C 1,6 km/h (1 Bft) 98 %
05.03.2014 22:50 1,9 C 1,9 C 2,1 C 85 % 1024,6 hPa 0,0 l/m 0,0 km/h (0 Bft) N 0 0 min 0,000 mm 0 W/m -0,3 C 1,9 C 0,0 km/h (0 Bft) 98 %
05.03.2014 23:00 1,7 C 1,7 C 1,9 C 86 % 1024,7 hPa 0,0 l/m 0,0 km/h (0 Bft) N 0 0 min 0,000 mm 0 W/m -0,4 C 1,7 C 0,0 km/h (0 Bft) 86 %
05.03.2014 23:10 1,8 C 1,7 C 1,8 C 86 % 1024,7 hPa 0,0 l/m 0,0 km/h (0 Bft) N-NO 22 0 min 0,000 mm 0 W/m -0,3 C 1,8 C 3,2 km/h (1 Bft) 98 %
05.03.2014 23:20 2,2 C 1,8 C 2,2 C 86 % 1024,7 hPa 0,0 l/m 1,6 km/h (1 Bft) NO 45 0 min 0,000 mm 0 W/m 0,1 C 2,2 C 4,8 km/h (1 Bft) 97 %
05.03.2014 23:30 2,3 C 2,2 C 2,4 C 85 % 1024,9 hPa 0,0 l/m 0,0 km/h (0 Bft) NO 45 0 min 0,000 mm 0 W/m 0,0 C 2,3 C 3,2 km/h (1 Bft) 98 %
05.03.2014 23:40 2,1 C 2,1 C 2,3 C 84 % 1024,9 hPa 0,0 l/m 0,0 km/h (0 Bft) NO 45 0 min 0,000 mm 0 W/m -0,3 C 2,1 C 1,6 km/h (1 Bft) 97 %
05.03.2014 23:50 1,8 C 1,8 C 2,1 C 85 % 1025,1 hPa 0,0 l/m 0,0 km/h (0 Bft) NO 45 0 min 0,000 mm 0 W/m -0,4 C 1,8 C 1,6 km/h (1 Bft) 98 %
_ Min-Zeit 05:00 05:00 05:10 15:00 00:00 - 00:00 - - - - - 05:00 05:00 00:00 23:00
Minimum _ 0,1 C 0,1 C 0,2 C 53 % 1009,0 hPa - 0,0 km/h (0 Bft) - - - - - -1,6 C 0,1 C 0,0 km/h (0 Bft) 86 %
_ Max-Zeit 15:00 12:50 15:00 02:30 23:50 00:00 15:00 - - 10:10 13:00 12:40 12:50 12:50 15:00 00:00
Maximum _ 11,8 C 11,6 C 11,8 C 88 % 1025,1 hPa 0,0 l/m 10,2 km/h
NW (2 Bft)
- - 10 min 0,253 mm 684 W/m 5,1 C 11,7 C 20,9 km/h
NW (4 Bft)
100 %
Durchschnitt _ 4,8 C 4,7 C 5,0 C 78 % 1017,0 hPa #0,0 l/m 0,7 km/h (0 Bft) NW - #4:00 h #1,143 mm 186 W/m 1,2 C 4,8 C 3,7 km/h (1 Bft) 99 %
PRIVATE WETTERSTATION BILLIGHEIM-ALLFELD - www.neckar-odenwald-wetter.de - Holger Sonntag